createdAt,value
2019-05-14T00:04:28.746Z,15.54
2019-05-14T00:07:41.399Z,15.50
2019-05-14T00:10:27.948Z,15.60
2019-05-14T00:16:17.544Z,15.48
2019-05-14T00:19:16.901Z,15.44
2019-05-14T00:22:08.470Z,15.48
2019-05-14T00:25:16.017Z,15.48
2019-05-14T00:30:47.501Z,15.47
2019-05-14T00:33:31.454Z,15.47
2019-05-14T00:36:14.082Z,15.52
2019-05-14T00:55:31.706Z,15.25
2019-05-14T01:05:18.643Z,15.16
2019-05-14T01:11:55.168Z,15.12
2019-05-14T01:29:42.171Z,14.98
2019-05-14T03:56:49.669Z,15.86
2019-05-14T03:59:20.302Z,16.00
2019-05-14T04:01:51.878Z,16.06
2019-05-14T04:04:29.914Z,16.19
2019-05-14T04:08:50.625Z,16.31
2019-05-14T04:49:41.703Z,17.17
2019-05-14T04:52:20.261Z,17.22
2019-05-14T04:54:51.300Z,17.49
2019-05-14T04:57:32.875Z,17.72
2019-05-14T05:00:07.117Z,17.73
2019-05-14T05:02:53.232Z,17.69
2019-05-14T05:05:24.785Z,17.78
2019-05-14T05:07:59.676Z,17.99
2019-05-14T05:10:39.855Z,18.26
2019-05-14T05:13:11.306Z,18.21
2019-05-14T05:15:42.937Z,18.37
2019-05-14T05:18:13.718Z,18.59
2019-05-14T05:20:44.855Z,18.62
2019-05-14T05:23:20.271Z,18.50
2019-05-14T05:25:49.699Z,18.57
2019-05-14T05:28:24.225Z,18.67
2019-05-14T05:30:58.619Z,18.67
2019-05-14T05:33:30.525Z,18.79
2019-05-14T05:36:05.134Z,18.76
2019-05-14T05:38:39.347Z,18.98
2019-05-14T05:41:12.827Z,18.85
2019-05-14T05:43:48.411Z,18.99
2019-05-14T05:46:22.933Z,19.15
2019-05-14T05:49:12.280Z,19.14
2019-05-14T05:51:48.403Z,19.07
2019-05-14T05:54:50.883Z,19.11
2019-05-14T05:57:35.139Z,19.15
2019-05-14T06:00:10.808Z,19.36
2019-05-14T06:02:45.399Z,19.37
2019-05-14T06:05:19.983Z,19.51
2019-05-14T06:08:00.921Z,19.68
2019-05-14T06:10:54.283Z,19.65
2019-05-14T06:13:28.948Z,19.74
2019-05-14T06:16:03.782Z,19.95
2019-05-14T06:18:53.632Z,20.01
2019-05-14T06:21:24.940Z,20.17
2019-05-14T06:23:58.215Z,20.26
2019-05-14T06:26:29.510Z,20.37
2019-05-14T06:29:00.466Z,20.36
2019-05-14T06:31:31.933Z,20.33
2019-05-14T06:34:03.027Z,20.45
2019-05-14T06:36:35.465Z,20.43
2019-05-14T06:39:09.042Z,20.42
2019-05-14T06:41:42.838Z,20.49
2019-05-14T06:44:12.910Z,20.71
2019-05-14T06:46:49.058Z,20.90
2019-05-14T06:49:20.449Z,20.82
2019-05-14T06:51:51.920Z,20.90
2019-05-14T06:54:22.590Z,20.88
2019-05-14T06:56:53.825Z,21.04
2019-05-14T07:09:45.879Z,21.38
2019-05-14T07:12:25.259Z,21.37
2019-05-14T07:15:09.304Z,21.43
2019-05-14T07:18:10.042Z,21.44
2019-05-14T07:20:50.751Z,21.51
2019-05-14T07:23:32.894Z,21.64
2019-05-14T07:32:52.109Z,21.86
2019-05-14T07:35:32.734Z,21.95
2019-05-14T07:38:15.565Z,22.08
2019-05-14T07:40:51.891Z,22.21
2019-05-14T07:45:05.561Z,22.37
2019-05-14T07:46:16.045Z,22.37
2019-05-14T07:49:11.523Z,22.31
2019-05-14T07:51:48.198Z,22.29
2019-05-14T07:54:22.282Z,22.49
2019-05-14T07:57:19.252Z,22.60
2019-05-14T07:59:52.279Z,22.59
2019-05-14T08:02:29.003Z,22.67
2019-05-14T08:05:00.982Z,22.70
2019-05-14T08:07:33.415Z,22.80
2019-05-14T08:10:18.708Z,22.83
2019-05-14T08:12:50.335Z,22.95
2019-05-14T08:15:27.998Z,23.04
2019-05-14T08:18:08.264Z,23.01
2019-05-14T08:20:51.650Z,23.07
2019-05-14T08:23:48.788Z,23.27
2019-05-14T08:26:24.416Z,23.27
2019-05-14T08:28:58.065Z,23.30
2019-05-14T08:31:49.626Z,23.34
2019-05-14T08:34:30.373Z,23.43
2019-05-14T08:37:04.067Z,23.55
2019-05-14T08:39:43.676Z,23.57
2019-05-14T08:42:18.916Z,23.58
2019-05-14T08:44:55.308Z,23.55
2019-05-14T08:47:29.665Z,23.55
2019-05-14T08:50:02.478Z,23.72
2019-05-14T08:52:40.954Z,23.90
2019-05-14T08:55:18.597Z,23.85
2019-05-14T08:57:59.460Z,23.94
2019-05-14T09:00:31.004Z,24.03
2019-05-14T09:03:05.135Z,24.13
2019-05-14T09:05:38.786Z,24.10
2019-05-14T09:08:19.227Z,24.16
2019-05-14T09:10:58.926Z,24.09
2019-05-14T09:13:28.938Z,24.03
2019-05-14T09:16:00.541Z,24.10
2019-05-14T09:18:31.257Z,24.26
2019-05-14T09:23:52.266Z,24.27
2019-05-14T09:26:23.988Z,24.23
2019-05-14T09:29:16.956Z,24.33
2019-05-14T09:31:38.789Z,24.28
2019-05-14T09:34:11.793Z,24.40
2019-05-14T09:36:44.804Z,24.52
2019-05-14T09:39:18.566Z,24.61
2019-05-14T09:41:52.181Z,24.67
2019-05-14T09:44:24.592Z,24.71
2019-05-14T09:46:59.425Z,24.63
2019-05-14T09:49:32.169Z,24.53
2019-05-14T09:52:03.532Z,24.64
2019-05-14T09:54:39.363Z,24.66
2019-05-14T09:57:13.198Z,24.80
2019-05-14T09:59:44.661Z,24.76
2019-05-14T10:02:16.117Z,24.80
2019-05-14T10:04:48.974Z,24.86
2019-05-14T10:07:20.685Z,24.99
2019-05-14T10:09:51.980Z,25.07
2019-05-14T10:12:22.530Z,24.90
2019-05-14T10:14:53.712Z,24.74
2019-05-14T10:17:24.415Z,24.87
2019-05-14T10:20:11.426Z,24.87
2019-05-14T10:22:43.787Z,24.84
2019-05-14T10:25:15.149Z,24.61
2019-05-14T10:27:48.571Z,24.72
2019-05-14T10:30:19.595Z,24.85
2019-05-14T10:32:51.825Z,25.06
2019-05-14T10:35:28.543Z,25.12
2019-05-14T10:38:00.557Z,25.24
2019-05-14T10:40:31.854Z,25.40
2019-05-14T10:43:02.563Z,25.41
2019-05-14T10:45:33.594Z,25.32
2019-05-14T10:48:04.299Z,25.13
2019-05-14T10:50:52.222Z,25.09
2019-05-14T10:53:09.203Z,25.13
2019-05-14T10:55:40.572Z,24.97
2019-05-14T10:58:12.838Z,24.92
2019-05-14T11:00:43.469Z,24.87
2019-05-14T11:03:14.540Z,24.76
2019-05-14T11:05:45.231Z,24.91
2019-05-14T11:08:18.711Z,24.90
2019-05-14T11:10:49.957Z,24.81
2019-05-14T11:13:21.418Z,24.88
2019-05-14T11:15:52.129Z,24.90
2019-05-14T11:18:24.882Z,24.78
2019-05-14T11:21:16.230Z,24.84
2019-05-14T11:23:29.956Z,24.87
2019-05-14T11:26:01.824Z,24.86
2019-05-14T11:28:34.736Z,24.87
2019-05-14T11:31:06.000Z,24.85
2019-05-14T11:33:38.821Z,24.81
2019-05-14T11:36:10.262Z,24.78
2019-05-14T11:38:41.534Z,24.85
2019-05-14T11:41:12.195Z,24.93
2019-05-14T11:43:43.296Z,24.69
2019-05-14T11:46:14.907Z,24.62
2019-05-14T11:48:48.695Z,24.77
2019-05-14T11:51:19.268Z,24.81
2019-05-14T11:53:51.238Z,25.04
2019-05-14T11:56:21.998Z,25.11
2019-05-14T11:58:53.192Z,25.13
2019-05-14T12:01:24.551Z,25.18
2019-05-14T12:03:55.205Z,25.37
2019-05-14T12:06:26.498Z,25.39
2019-05-14T12:08:58.288Z,25.43
2019-05-14T12:11:29.783Z,25.39
2019-05-14T12:14:01.353Z,25.46
2019-05-14T12:16:32.017Z,25.48
2019-05-14T12:19:03.174Z,25.55
2019-05-14T12:21:34.687Z,25.67
2019-05-14T12:24:06.494Z,25.74
2019-05-14T12:26:38.653Z,25.70
2019-05-14T12:29:10.288Z,25.68
2019-05-14T12:31:41.741Z,25.72
2019-05-14T12:34:13.223Z,25.76
2019-05-14T12:36:43.874Z,25.65
2019-05-14T12:39:14.916Z,25.62
2019-05-14T12:41:46.178Z,25.72
2019-05-14T12:44:19.554Z,25.73
2019-05-14T12:46:50.157Z,25.56
2019-05-14T12:49:21.458Z,25.70
2019-05-14T12:51:52.638Z,25.67
2019-05-14T12:54:29.677Z,25.75
2019-05-14T12:57:00.095Z,25.92
2019-05-14T12:59:30.719Z,26.04
2019-05-14T13:02:01.853Z,25.97
2019-05-14T13:04:33.067Z,26.08
2019-05-14T13:07:03.679Z,26.11
2019-05-14T13:09:34.783Z,25.97
2019-05-14T13:12:10.953Z,26.07
2019-05-14T13:14:39.683Z,26.26
2019-05-14T13:17:11.192Z,26.18
2019-05-14T13:19:41.753Z,26.12
2019-05-14T13:22:18.181Z,26.07
2019-05-14T13:24:49.179Z,26.15
2019-05-14T13:27:19.775Z,26.16
2019-05-14T13:29:51.032Z,26.31
2019-05-14T13:32:21.659Z,26.13
2019-05-14T13:34:52.705Z,26.04
2019-05-14T13:37:23.949Z,26.11
2019-05-14T13:39:54.557Z,26.21
2019-05-14T13:42:25.692Z,26.19
2019-05-14T13:44:58.450Z,26.34
2019-05-14T13:47:29.805Z,26.50
2019-05-14T13:50:01.080Z,26.56
2019-05-14T13:52:33.471Z,26.42
2019-05-14T13:55:04.420Z,26.44
2019-05-14T13:57:35.495Z,26.24
2019-05-14T14:00:11.564Z,26.39
2019-05-14T14:02:39.021Z,26.34
2019-05-14T14:05:09.622Z,26.31
2019-05-14T14:07:44.585Z,26.36
2019-05-14T14:10:13.668Z,26.32
2019-05-14T14:12:44.335Z,26.43
2019-05-14T14:15:15.429Z,26.41
2019-05-14T14:17:46.024Z,26.44
2019-05-14T14:20:19.414Z,26.45
2019-05-14T14:22:50.059Z,26.54
2019-05-14T14:25:20.612Z,26.46
2019-05-14T14:27:51.703Z,26.24
2019-05-14T14:30:24.107Z,26.38
2019-05-14T14:32:58.558Z,26.57
2019-05-14T14:35:32.873Z,26.62
2019-05-14T14:38:09.929Z,26.52
2019-05-14T14:40:44.151Z,26.56
2019-05-14T14:43:31.118Z,26.79
2019-05-14T14:46:19.617Z,26.82
2019-05-14T14:49:10.827Z,26.80
2019-05-14T14:51:45.098Z,26.68
2019-05-14T14:54:22.505Z,26.65
2019-05-14T14:57:00.228Z,26.59
2019-05-14T14:59:41.122Z,26.73
2019-05-14T15:02:28.544Z,26.67
2019-05-14T15:04:59.776Z,26.44
2019-05-14T15:07:41.462Z,26.57
2019-05-14T15:10:28.435Z,26.47
2019-05-14T15:13:15.715Z,26.45
2019-05-14T15:16:00.832Z,26.24
2019-05-14T15:18:50.416Z,26.26
2019-05-14T15:21:29.996Z,26.48
2019-05-14T15:24:16.007Z,26.44
2019-05-14T15:26:55.271Z,26.36
2019-05-14T15:29:28.409Z,26.22
2019-05-14T15:32:04.877Z,26.28
2019-05-14T15:34:43.051Z,25.99
2019-05-14T15:37:16.050Z,26.14
2019-05-14T15:39:49.050Z,26.12
2019-05-14T15:42:24.084Z,26.27
2019-05-14T15:44:59.204Z,26.33
2019-05-14T15:47:29.663Z,26.19
2019-05-14T15:50:05.261Z,26.13
2019-05-14T15:52:40.895Z,26.07
2019-05-14T15:55:14.329Z,26.11
2019-05-14T15:57:48.633Z,25.95
2019-05-14T16:00:20.706Z,25.78
2019-05-14T16:02:52.174Z,25.66
2019-05-14T16:05:28.522Z,25.63
2019-05-14T16:08:05.858Z,25.40
2019-05-14T16:10:39.774Z,25.25
2019-05-14T16:13:10.795Z,25.12
2019-05-14T16:15:41.617Z,25.00
2019-05-14T16:18:18.343Z,24.74
2019-05-14T16:20:46.360Z,24.71
2019-05-14T16:23:18.735Z,24.80
2019-05-14T16:25:50.333Z,24.72
2019-05-14T16:28:21.108Z,24.73
2019-05-14T16:30:52.252Z,24.58
2019-05-14T16:33:23.818Z,24.67
2019-05-14T16:35:54.560Z,24.73
2019-05-14T16:38:28.717Z,24.55
2019-05-14T16:41:00.476Z,24.55
2019-05-14T16:43:32.359Z,24.47
2019-05-14T16:46:04.540Z,24.40
2019-05-14T16:48:36.039Z,24.26
2019-05-14T16:51:08.946Z,24.18
2019-05-14T16:54:03.865Z,24.21
2019-05-14T16:56:34.553Z,24.02
2019-05-14T16:59:05.655Z,23.83
2019-05-14T17:01:36.277Z,23.95
2019-05-14T17:04:09.238Z,23.75
2019-05-14T17:06:40.388Z,23.84
2019-05-14T17:09:11.060Z,23.79
2019-05-14T17:11:42.165Z,23.47
2019-05-14T17:14:12.872Z,23.53
2019-05-14T17:16:44.082Z,23.36
2019-05-14T17:19:14.752Z,23.41
2019-05-14T17:21:48.556Z,23.29
2019-05-14T17:24:21.941Z,23.27
2019-05-14T17:26:58.149Z,23.13
2019-05-14T17:29:28.978Z,22.96
2019-05-14T17:31:59.624Z,22.83
2019-05-14T17:34:30.747Z,22.45
2019-05-14T17:37:01.506Z,22.39
2019-05-14T17:39:32.666Z,22.09
2019-05-14T17:42:03.342Z,22.05
2019-05-14T17:44:34.457Z,21.74
2019-05-14T17:47:06.768Z,21.72
2019-05-14T17:49:39.120Z,21.48
2019-05-14T17:52:10.941Z,21.45
2019-05-14T17:54:48.292Z,21.38
2019-05-14T17:57:24.961Z,21.11
2019-05-14T17:59:51.616Z,21.13
2019-05-14T18:02:22.319Z,21.17
2019-05-14T18:04:59.257Z,20.93
2019-05-14T18:07:29.720Z,20.95
2019-05-14T18:10:00.731Z,20.93
2019-05-14T18:12:31.968Z,20.69
2019-05-14T18:15:08.542Z,20.76
2019-05-14T18:17:39.955Z,20.72
2019-05-14T18:20:11.710Z,20.65
2019-05-14T18:22:44.823Z,20.60
2019-05-14T18:25:18.305Z,20.49
2019-05-14T18:27:50.112Z,20.46
2019-05-14T18:30:22.566Z,20.46
2019-05-14T18:32:55.357Z,20.38
2019-05-14T18:35:26.161Z,20.15
2019-05-14T18:37:56.986Z,20.23
2019-05-14T18:40:28.234Z,20.04
2019-05-14T18:42:59.782Z,20.08
2019-05-14T18:45:31.172Z,20.06
2019-05-14T18:48:02.802Z,20.10
2019-05-14T18:50:34.321Z,20.10
2019-05-14T18:53:05.211Z,20.05
2019-05-14T18:55:38.588Z,19.84
2019-05-14T18:58:10.305Z,19.84
2019-05-14T19:00:43.893Z,19.83
2019-05-14T19:03:15.039Z,19.64
2019-05-14T19:05:47.910Z,19.70
2019-05-14T19:08:20.914Z,19.52
2019-05-14T19:10:55.055Z,19.61
2019-05-14T19:13:28.166Z,19.60
2019-05-14T19:16:02.500Z,19.46
2019-05-14T19:18:33.915Z,19.48
2019-05-14T19:21:08.651Z,19.48
2019-05-14T19:23:39.829Z,19.50
2019-05-14T19:26:10.544Z,19.51
2019-05-14T19:28:43.156Z,19.31
2019-05-14T19:31:15.017Z,19.37
2019-05-14T19:33:48.657Z,19.43
2019-05-14T19:36:22.232Z,19.41
2019-05-14T19:38:54.652Z,19.44
2019-05-14T19:41:28.136Z,19.44
2019-05-14T19:43:59.792Z,19.38
2019-05-14T19:46:32.941Z,19.29
2019-05-14T19:49:04.418Z,19.28
2019-05-14T19:51:35.110Z,19.27
2019-05-14T19:54:08.193Z,19.02
2019-05-14T19:56:52.444Z,19.08
2019-05-14T19:59:12.793Z,19.06
2019-05-14T20:01:44.462Z,19.04
2019-05-14T20:04:18.944Z,18.97
2019-05-14T20:06:49.795Z,18.93
2019-05-14T20:09:28.493Z,18.77
2019-05-14T20:12:00.011Z,18.82
2019-05-14T20:14:31.559Z,18.83
2019-05-14T20:17:02.439Z,18.81
2019-05-14T20:19:33.675Z,18.63
2019-05-14T20:22:05.343Z,18.68
2019-05-14T20:24:41.215Z,18.70
2019-05-14T20:27:12.286Z,18.65
2019-05-14T20:29:43.628Z,18.65
2019-05-14T20:32:15.229Z,18.61
2019-05-14T20:34:48.471Z,18.56
2019-05-14T20:37:19.626Z,18.39
2019-05-14T20:39:51.211Z,18.42
2019-05-14T20:42:22.608Z,18.44
2019-05-14T20:44:53.493Z,18.47
2019-05-14T20:47:24.564Z,18.27
2019-05-14T20:49:55.414Z,18.32
2019-05-14T20:52:28.426Z,18.18
2019-05-14T20:54:59.729Z,18.23
2019-05-14T20:57:33.501Z,18.24
2019-05-14T21:00:03.157Z,18.12
2019-05-14T21:02:34.950Z,18.16
2019-05-14T21:05:13.396Z,18.10
2019-05-14T21:07:41.699Z,17.92
2019-05-14T21:10:12.497Z,17.93
2019-05-14T21:12:43.710Z,17.80
2019-05-14T21:15:15.161Z,17.88
2019-05-14T21:17:50.180Z,17.89
2019-05-14T21:20:19.949Z,17.87
2019-05-14T21:22:50.798Z,17.87
2019-05-14T21:25:21.950Z,17.71
2019-05-14T21:27:52.841Z,17.72
2019-05-14T21:30:24.120Z,17.61
2019-05-14T21:32:55.738Z,17.70
2019-05-14T21:35:29.221Z,17.69
2019-05-14T21:38:01.426Z,17.64
2019-05-14T21:40:33.241Z,17.67
2019-05-14T21:43:04.027Z,17.63
2019-05-14T21:45:38.316Z,17.49
2019-05-14T21:48:09.477Z,17.54
2019-05-14T21:50:40.283Z,17.61
2019-05-14T21:53:11.355Z,17.47
2019-05-14T21:55:42.177Z,17.46
2019-05-14T21:58:13.305Z,17.32
2019-05-14T22:01:00.239Z,17.39
2019-05-14T22:03:31.744Z,17.41
2019-05-14T22:06:03.446Z,17.47
2019-05-14T22:08:34.988Z,17.50
2019-05-14T22:11:05.809Z,17.55
2019-05-14T22:13:38.117Z,17.49
2019-05-14T22:16:09.755Z,17.56
2019-05-14T22:18:40.624Z,17.61
2019-05-14T22:21:11.854Z,17.42
2019-05-14T22:23:43.306Z,17.43
2019-05-14T22:26:14.069Z,17.42
2019-05-14T22:28:45.196Z,17.22
2019-05-14T22:31:19.096Z,17.26
2019-05-14T22:33:49.801Z,17.21
2019-05-14T22:36:21.599Z,17.20
2019-05-14T22:38:54.298Z,17.15
2019-05-14T22:41:25.999Z,17.16
2019-05-14T22:43:59.866Z,17.17
2019-05-14T22:46:31.036Z,17.14
2019-05-14T22:49:02.405Z,17.07
2019-05-14T22:51:33.923Z,17.20
2019-05-14T22:54:04.721Z,17.31
2019-05-14T22:56:35.768Z,17.36
2019-05-14T22:59:06.610Z,17.52
2019-05-14T23:01:38.633Z,17.44
2019-05-14T23:04:10.356Z,17.54
2019-05-14T23:06:42.078Z,17.50
2019-05-14T23:09:12.717Z,17.44
2019-05-14T23:11:43.872Z,17.36
2019-05-14T23:14:18.416Z,17.46
2019-05-14T23:16:49.508Z,17.46
2019-05-14T23:19:20.892Z,17.44
2019-05-14T23:21:52.321Z,17.39
2019-05-14T23:24:23.988Z,17.34
2019-05-14T23:26:54.845Z,17.38
2019-05-14T23:29:25.959Z,17.23
2019-05-14T23:31:58.804Z,17.28
2019-05-14T23:34:29.957Z,17.17
2019-05-14T23:37:00.769Z,17.23
2019-05-14T23:39:32.815Z,17.11
2019-05-14T23:42:04.437Z,17.11
2019-05-14T23:44:38.121Z,17.18
2019-05-14T23:47:09.024Z,17.18
2019-05-14T23:49:40.362Z,17.15
2019-05-14T23:52:11.118Z,17.03
2019-05-14T23:54:42.225Z,16.77
2019-05-14T23:57:13.717Z,16.78
2019-05-14T23:59:44.466Z,16.74
